EGGP/LPL METAR and TAF weather

Enter ICAO airport designator
Station Type Date Time Source
EGGP METAR 2018/12/13 15:20 UTC NOAA

EGGP 131520Z 12011KT 9999 SCT030 05/00 Q1017


Station Type Date Time Source
EGGP Decoded METAR 2018/12/13 15:20 UTC NOAA

Liverpool Airport , United Kingdom (EGGP) 53-20N 002-51W
Dec 13, 2018 - 10:20 AM EST / 2018.12.13 1520 UTC
Wind: from the ESE (120 degrees) at 13 MPH (11 KT):0
Visibility: greater than 7 mile(s):0
Sky conditions: partly cloudy
Temperature: 41 F (5 C)
Dew Point: 32 F (0 C)
Relative Humidity: 70%
Pressure (altimeter): 30.03 in. Hg (1017 hPa)
ob: EGGP 131520Z 12011KT 9999 SCT030 05/00 Q1017
cycle: 15

Station Type Date Time Source
EGGP TAF 2018/12/13 12:09 UTC NOAA

TAF EGGP 131054Z 1312/1412 13014KT 9999 FEW045 PROB30
TEMPO 1312/1317 14017G27KT
BECMG 1321/1324 12004KT


Example: see airport list